createdAt,value
2022-08-23T00:00:20.250Z,15.80
2022-08-23T00:03:38.234Z,15.50
2022-08-23T00:06:41.222Z,15.00
2022-08-23T00:09:43.444Z,15.70
2022-08-23T00:12:46.940Z,16.00
2022-08-23T00:15:48.776Z,16.20
2022-08-23T00:18:51.162Z,16.40
2022-08-23T00:21:54.912Z,15.70
2022-08-23T00:24:57.107Z,16.60
2022-08-23T00:27:59.538Z,17.30
2022-08-23T00:31:01.442Z,16.20
2022-08-23T00:34:04.147Z,16.60
2022-08-23T00:37:07.744Z,17.70
2022-08-23T00:40:11.677Z,18.20
2022-08-23T00:43:34.450Z,19.00
2022-08-23T00:47:05.346Z,19.10
2022-08-23T00:50:23.320Z,22.10
2022-08-23T00:53:30.236Z,23.90
2022-08-23T00:56:34.165Z,26.60
2022-08-23T00:59:36.306Z,27.70
2022-08-23T01:02:38.605Z,28.20
2022-08-23T01:06:13.001Z,29.10
2022-08-23T01:09:20.388Z,27.80
2022-08-23T01:12:30.434Z,28.50
2022-08-23T01:15:56.615Z,30.80
2022-08-23T01:18:58.339Z,30.40
2022-08-23T01:22:28.277Z,30.60
2022-08-23T01:25:32.013Z,29.80
2022-08-23T01:28:34.404Z,30.50
2022-08-23T01:31:36.660Z,31.10
2022-08-23T01:34:44.806Z,32.00
2022-08-23T01:37:53.568Z,31.70
2022-08-23T01:40:55.352Z,30.40
2022-08-23T01:43:57.958Z,31.20
2022-08-23T01:46:59.692Z,31.30
2022-08-23T01:50:01.767Z,32.30
2022-08-23T01:53:04.722Z,31.10
2022-08-23T01:56:07.534Z,32.70
2022-08-23T01:59:10.837Z,32.40
2022-08-23T02:02:12.741Z,32.40
2022-08-23T02:05:18.370Z,31.80
2022-08-23T02:08:40.161Z,33.30
2022-08-23T02:11:42.861Z,33.90
2022-08-23T02:14:44.575Z,37.60
2022-08-23T02:17:49.620Z,41.90
2022-08-23T02:20:53.556Z,42.50
2022-08-23T02:23:55.425Z,41.80
2022-08-23T02:27:01.865Z,44.00
2022-08-23T02:30:05.192Z,45.00
2022-08-23T02:33:07.208Z,46.70
2022-08-23T02:36:09.417Z,49.50
2022-08-23T02:39:12.911Z,48.50
2022-08-23T02:42:15.099Z,49.50
2022-08-23T02:45:17.620Z,50.00
2022-08-23T02:48:20.445Z,48.00
2022-08-23T02:51:22.942Z,44.80
2022-08-23T02:54:24.956Z,44.10
2022-08-23T02:57:27.373Z,45.00
2022-08-23T03:00:32.496Z,43.00
2022-08-23T03:03:34.670Z,43.60
2022-08-23T03:06:39.880Z,43.00
2022-08-23T03:09:41.632Z,42.60
2022-08-23T03:12:43.452Z,44.40
2022-08-23T03:15:45.376Z,43.90
2022-08-23T03:18:48.450Z,43.60
2022-08-23T03:21:50.469Z,42.60
2022-08-23T03:24:52.647Z,42.40
2022-08-23T03:27:54.978Z,42.80
2022-08-23T03:30:57.411Z,41.60
2022-08-23T03:33:59.241Z,43.80
2022-08-23T03:37:01.111Z,40.80
2022-08-23T03:40:05.422Z,41.30
2022-08-23T03:43:07.302Z,41.40
2022-08-23T03:46:09.245Z,41.20
2022-08-23T03:49:11.325Z,39.50
2022-08-23T03:52:13.552Z,40.70
2022-08-23T03:55:16.198Z,38.40
2022-08-23T03:58:18.192Z,38.90
2022-08-23T04:01:22.434Z,40.80
2022-08-23T04:04:25.949Z,41.90
2022-08-23T04:07:28.319Z,40.40
2022-08-23T04:10:30.181Z,40.20
2022-08-23T04:13:32.018Z,43.00
2022-08-23T04:16:37.756Z,43.70
2022-08-23T04:19:39.625Z,42.50
2022-08-23T04:22:41.362Z,45.10
2022-08-23T04:25:45.956Z,43.30
2022-08-23T04:28:47.777Z,45.30
2022-08-23T04:31:49.466Z,45.80
2022-08-23T04:34:51.629Z,46.70
2022-08-23T04:37:53.928Z,48.20
2022-08-23T04:41:15.178Z,48.10
2022-08-23T04:44:17.386Z,48.00
2022-08-23T04:47:20.532Z,47.60
2022-08-23T04:50:22.364Z,45.70
2022-08-23T04:53:24.105Z,43.40
2022-08-23T04:56:25.855Z,42.20
2022-08-23T04:59:27.866Z,40.70
2022-08-23T05:02:29.657Z,40.80
2022-08-23T05:05:31.371Z,39.80
2022-08-23T05:08:33.626Z,37.90
2022-08-23T05:11:35.449Z,37.80
2022-08-23T05:14:37.428Z,34.70
2022-08-23T05:17:39.561Z,34.70
2022-08-23T05:20:42.014Z,32.60
2022-08-23T05:23:43.902Z,31.90
2022-08-23T05:26:52.608Z,32.50
2022-08-23T05:29:54.526Z,30.40
2022-08-23T05:32:56.327Z,27.50
2022-08-23T05:35:58.835Z,26.10
2022-08-23T05:39:00.671Z,27.70
2022-08-23T05:42:02.453Z,27.00
2022-08-23T05:45:06.159Z,25.40
2022-08-23T05:48:08.249Z,22.80
2022-08-23T05:51:19.722Z,22.90
2022-08-23T05:54:21.682Z,22.00
2022-08-23T05:57:23.725Z,19.80
2022-08-23T06:00:25.680Z,18.40
2022-08-23T06:03:40.071Z,18.90
2022-08-23T06:06:43.039Z,17.20
2022-08-23T06:09:45.333Z,18.00
2022-08-23T06:12:47.785Z,17.40
2022-08-23T06:15:49.779Z,18.20
2022-08-23T06:18:52.254Z,18.50
2022-08-23T06:21:55.377Z,18.30
2022-08-23T06:24:57.570Z,18.60
2022-08-23T06:27:59.676Z,18.60
2022-08-23T06:31:02.233Z,18.90
2022-08-23T06:34:07.530Z,19.60
2022-08-23T06:37:17.377Z,19.90
2022-08-23T06:40:20.034Z,19.60
2022-08-23T06:43:26.405Z,19.10
2022-08-23T06:46:30.048Z,19.20
2022-08-23T06:49:32.652Z,19.90
2022-08-23T06:52:34.377Z,18.20
2022-08-23T06:55:36.196Z,18.80
2022-08-23T06:58:37.898Z,20.20
2022-08-23T07:01:50.094Z,19.90
2022-08-23T07:04:54.279Z,18.90
2022-08-23T07:07:56.253Z,18.10
2022-08-23T07:10:58.011Z,18.10
2022-08-23T07:14:01.110Z,16.60
2022-08-23T07:17:03.979Z,17.30
2022-08-23T07:20:07.074Z,17.10
2022-08-23T07:23:09.050Z,19.60
2022-08-23T07:26:13.114Z,19.90
2022-08-23T07:29:16.204Z,17.70
2022-08-23T07:32:18.768Z,15.90
2022-08-23T07:35:21.674Z,15.50
2022-08-23T07:38:23.755Z,18.40
2022-08-23T07:41:33.517Z,18.80
2022-08-23T07:44:35.193Z,17.50
2022-08-23T07:47:37.058Z,17.80
2022-08-23T07:50:56.059Z,17.50
2022-08-23T07:54:02.614Z,17.50
2022-08-23T07:57:04.574Z,16.50
2022-08-23T08:00:08.164Z,15.10
2022-08-23T08:03:12.556Z,14.40
2022-08-23T08:06:18.177Z,14.90
2022-08-23T08:09:20.410Z,16.90
2022-08-23T08:12:23.222Z,17.10
2022-08-23T08:15:25.748Z,16.10
2022-08-23T08:18:27.550Z,17.80
2022-08-23T08:21:29.805Z,17.10
2022-08-23T08:24:31.658Z,15.70
2022-08-23T08:27:34.650Z,15.90
2022-08-23T08:30:37.776Z,15.10
2022-08-23T08:33:39.814Z,16.10
2022-08-23T08:36:47.182Z,15.40
2022-08-23T08:39:49.355Z,14.70
2022-08-23T08:42:54.482Z,14.20
2022-08-23T08:46:24.305Z,14.40
2022-08-23T08:49:45.712Z,13.30
2022-08-23T08:52:52.030Z,11.80
2022-08-23T08:55:57.878Z,12.00
2022-08-23T08:59:06.635Z,12.10
2022-08-23T09:02:32.081Z,11.10
2022-08-23T09:05:38.185Z,12.70
2022-08-23T09:08:49.890Z,12.10
2022-08-23T09:12:29.655Z,28.40
2022-08-23T09:16:00.555Z,28.30
2022-08-23T09:19:03.746Z,12.00
2022-08-23T09:22:14.481Z,11.00
2022-08-23T09:25:17.122Z,10.90
2022-08-23T09:28:19.409Z,11.20
2022-08-23T09:31:58.617Z,11.80
2022-08-23T09:35:12.162Z,30.30
2022-08-23T09:38:14.124Z,11.50
2022-08-23T09:41:20.337Z,11.30
2022-08-23T09:44:41.514Z,11.40
2022-08-23T09:47:44.861Z,11.30
2022-08-23T09:50:54.584Z,11.50
2022-08-23T09:54:22.187Z,11.80
2022-08-23T09:57:28.085Z,10.80
2022-08-23T10:00:34.266Z,11.20
2022-08-23T10:03:36.646Z,10.60
2022-08-23T10:06:39.851Z,12.00
2022-08-23T10:09:41.706Z,16.90
2022-08-23T10:12:43.700Z,12.90
2022-08-23T10:15:54.566Z,10.90
2022-08-23T10:19:20.296Z,10.40
2022-08-23T10:22:26.474Z,10.20
2022-08-23T10:25:40.531Z,9.80
2022-08-23T10:29:18.139Z,9.70
2022-08-23T10:32:32.174Z,9.40
2022-08-23T10:35:42.661Z,8.80
2022-08-23T10:38:50.801Z,9.60
2022-08-23T10:42:04.605Z,10.30
2022-08-23T10:45:17.080Z,10.80
2022-08-23T10:48:29.859Z,9.50
2022-08-23T10:51:40.517Z,8.20
2022-08-23T10:55:06.144Z,8.70
2022-08-23T10:58:13.314Z,8.80
2022-08-23T11:01:19.539Z,8.10
2022-08-23T11:04:39.274Z,8.10
2022-08-23T11:07:42.909Z,7.50
2022-08-23T11:10:56.480Z,7.60
2022-08-23T11:13:59.415Z,6.60
2022-08-23T11:17:07.947Z,6.90
2022-08-23T11:20:12.972Z,7.00
2022-08-23T11:23:17.886Z,7.20
2022-08-23T11:26:22.715Z,7.40
2022-08-23T11:29:24.648Z,7.10
2022-08-23T11:32:38.718Z,6.90
2022-08-23T11:35:44.526Z,7.10
2022-08-23T11:38:48.997Z,6.90
2022-08-23T11:41:53.972Z,6.50
2022-08-23T11:44:55.873Z,6.30
2022-08-23T11:48:19.583Z,5.90
2022-08-23T11:51:33.371Z,6.50
2022-08-23T11:54:46.650Z,6.70
2022-08-23T11:58:12.402Z,6.00
2022-08-23T12:01:14.602Z,6.20
2022-08-23T12:04:36.173Z,5.70
2022-08-23T12:07:47.842Z,6.00
2022-08-23T12:10:50.863Z,6.80
2022-08-23T12:13:55.554Z,6.60
2022-08-23T12:17:04.108Z,6.80
2022-08-23T12:20:16.747Z,6.40
2022-08-23T12:23:20.963Z,6.10
2022-08-23T12:26:38.609Z,6.50
2022-08-23T12:29:58.931Z,7.60
2022-08-23T12:33:05.799Z,7.80
2022-08-23T12:36:45.458Z,7.90
2022-08-23T12:39:51.266Z,8.10
2022-08-23T12:43:03.724Z,7.00
2022-08-23T12:46:06.892Z,7.40
2022-08-23T12:49:13.488Z,7.50
2022-08-23T12:52:16.794Z,7.40
2022-08-23T12:55:20.241Z,7.00
2022-08-23T12:58:31.722Z,7.30
2022-08-23T13:01:38.562Z,7.20
2022-08-23T13:04:40.809Z,7.20
2022-08-23T13:07:42.850Z,6.80
2022-08-23T13:10:46.284Z,6.80
2022-08-23T13:13:48.202Z,6.70
2022-08-23T13:16:50.479Z,7.70
2022-08-23T13:20:01.115Z,7.40
2022-08-23T13:23:09.494Z,7.50
2022-08-23T13:26:27.551Z,7.60
2022-08-23T13:29:29.340Z,7.10
2022-08-23T13:33:09.566Z,6.90
2022-08-23T13:36:17.995Z,7.10
2022-08-23T13:39:23.085Z,7.50
2022-08-23T13:42:42.443Z,7.60
2022-08-23T13:45:50.076Z,7.20
2022-08-23T13:48:54.898Z,7.00
2022-08-23T13:52:18.370Z,7.10
2022-08-23T13:55:21.850Z,7.80
2022-08-23T13:58:32.470Z,7.70
2022-08-23T14:01:34.755Z,7.90
2022-08-23T14:04:36.460Z,8.50
2022-08-23T14:07:38.366Z,8.90
2022-08-23T14:10:40.332Z,9.40
2022-08-23T14:13:45.219Z,9.40
2022-08-23T14:16:47.034Z,9.10
2022-08-23T14:23:12.057Z,9.40
2022-08-23T14:26:17.841Z,9.70
2022-08-23T14:29:22.478Z,9.60
2022-08-23T14:32:24.596Z,9.60
2022-08-23T14:35:28.465Z,10.10
2022-08-23T14:38:31.713Z,10.30
2022-08-23T14:41:33.689Z,10.50
2022-08-23T14:44:36.516Z,10.60
2022-08-23T14:47:39.447Z,10.60
2022-08-23T14:50:41.330Z,9.80
2022-08-23T14:53:43.106Z,10.20
2022-08-23T14:56:44.975Z,10.40
2022-08-23T14:59:46.717Z,10.20
2022-08-23T15:02:50.415Z,9.80
2022-08-23T15:05:52.971Z,10.80
2022-08-23T15:08:54.789Z,9.50
2022-08-23T15:15:21.771Z,10.80
2022-08-23T15:18:25.146Z,9.90
2022-08-23T15:21:27.234Z,9.70
2022-08-23T15:24:29.453Z,10.00
2022-08-23T15:27:31.452Z,9.90
2022-08-23T15:30:33.596Z,10.20
2022-08-23T15:33:36.414Z,9.60
2022-08-23T15:36:41.548Z,9.50
2022-08-23T15:39:43.641Z,9.20
2022-08-23T15:42:45.414Z,9.40
2022-08-23T15:45:48.551Z,9.90
2022-08-23T15:49:06.386Z,9.30
2022-08-23T15:52:08.190Z,9.60
2022-08-23T15:55:10.565Z,9.50
2022-08-23T15:58:19.786Z,9.80
2022-08-23T16:01:24.675Z,9.40
2022-08-23T16:04:26.736Z,9.80
2022-08-23T16:10:39.069Z,9.90
2022-08-23T16:13:42.904Z,9.80
2022-08-23T16:16:48.534Z,10.00
2022-08-23T16:19:50.360Z,9.60
2022-08-23T16:22:53.119Z,10.00
2022-08-23T16:25:59.109Z,10.80
2022-08-23T16:29:06.041Z,10.40
2022-08-23T16:32:08.426Z,10.40
2022-08-23T16:35:10.685Z,10.80
2022-08-23T16:38:12.501Z,10.60
2022-08-23T16:41:14.277Z,10.20
2022-08-23T16:44:15.992Z,9.80
2022-08-23T16:47:18.392Z,11.10
2022-08-23T16:50:20.190Z,10.50
2022-08-23T16:53:22.145Z,10.60
2022-08-23T16:56:23.957Z,11.10
2022-08-23T16:59:25.815Z,11.70
2022-08-23T17:02:31.838Z,11.20
2022-08-23T17:05:33.755Z,12.10
2022-08-23T17:08:35.854Z,10.80
2022-08-23T17:11:40.075Z,10.30
2022-08-23T17:14:42.253Z,10.60
2022-08-23T17:17:44.262Z,10.90
2022-08-23T17:20:46.516Z,11.20
2022-08-23T17:23:48.507Z,17.90
2022-08-23T17:26:51.165Z,22.40
2022-08-23T17:29:52.798Z,23.30
2022-08-23T17:32:57.243Z,16.70
2022-08-23T17:35:58.959Z,13.90
2022-08-23T17:39:02.138Z,13.60
2022-08-23T17:42:04.137Z,12.90
2022-08-23T17:45:08.229Z,12.30
2022-08-23T17:48:11.459Z,11.90
2022-08-23T17:51:13.247Z,12.10
2022-08-23T17:54:16.030Z,12.60
2022-08-23T17:57:18.569Z,12.10
2022-08-23T18:00:20.714Z,12.80
2022-08-23T18:03:23.282Z,12.90
2022-08-23T18:06:25.618Z,12.20
2022-08-23T18:09:27.557Z,14.00
2022-08-23T18:12:29.398Z,14.60
2022-08-23T18:15:31.935Z,13.90
2022-08-23T18:18:33.944Z,14.00
2022-08-23T18:21:37.702Z,14.50
2022-08-23T18:24:39.536Z,14.50
2022-08-23T18:27:59.837Z,14.20
2022-08-23T18:31:03.888Z,15.60
2022-08-23T18:34:05.766Z,14.70
2022-08-23T18:37:07.809Z,16.10
2022-08-23T18:40:10.543Z,15.50
2022-08-23T18:43:21.035Z,15.90
2022-08-23T18:46:23.354Z,16.50
2022-08-23T18:49:25.219Z,16.20
2022-08-23T18:52:29.174Z,17.30
2022-08-23T18:55:33.574Z,18.20
2022-08-23T18:58:35.725Z,17.10
2022-08-23T19:01:40.678Z,17.60
2022-08-23T19:04:42.738Z,19.20
2022-08-23T19:07:44.586Z,19.40
2022-08-23T19:10:47.508Z,19.00
2022-08-23T19:13:51.243Z,19.10
2022-08-23T19:16:53.776Z,20.60
2022-08-23T19:19:55.547Z,19.10
2022-08-23T19:22:57.531Z,20.10
2022-08-23T19:26:00.545Z,20.50
2022-08-23T19:29:06.245Z,21.30
2022-08-23T19:32:08.155Z,21.00
2022-08-23T19:35:10.604Z,22.70
2022-08-23T19:38:14.456Z,21.50
2022-08-23T19:41:16.401Z,22.70
2022-08-23T19:44:18.648Z,23.30
2022-08-23T19:47:23.625Z,21.70
2022-08-23T19:50:30.706Z,23.20
2022-08-23T19:53:32.743Z,23.70
2022-08-23T19:56:41.585Z,23.50
2022-08-23T19:59:43.474Z,24.60
2022-08-23T20:02:45.248Z,24.30
2022-08-23T20:05:47.301Z,25.00
2022-08-23T20:08:52.365Z,24.30
2022-08-23T20:11:54.108Z,25.60
2022-08-23T20:14:57.109Z,25.10
2022-08-23T20:17:58.965Z,26.40
2022-08-23T20:21:01.096Z,26.00
2022-08-23T20:24:05.720Z,26.10
2022-08-23T20:27:07.732Z,27.00
2022-08-23T20:30:14.808Z,28.30
2022-08-23T20:33:16.605Z,27.50
2022-08-23T20:36:20.667Z,26.40
2022-08-23T20:39:24.158Z,26.40
2022-08-23T20:42:26.663Z,26.90
2022-08-23T20:45:29.190Z,26.40
2022-08-23T20:48:31.248Z,26.80
2022-08-23T20:51:36.522Z,27.10
2022-08-23T20:54:39.045Z,27.50
2022-08-23T20:57:40.756Z,26.90
2022-08-23T21:00:42.634Z,29.60
2022-08-23T21:03:44.465Z,29.00
2022-08-23T21:06:48.834Z,30.40
2022-08-23T21:09:51.020Z,29.00
2022-08-23T21:12:53.230Z,29.20
2022-08-23T21:15:55.072Z,30.00
2022-08-23T21:18:57.021Z,30.90
2022-08-23T21:21:58.872Z,32.00
2022-08-23T21:25:00.851Z,30.10
2022-08-23T21:28:04.430Z,31.30
2022-08-23T21:31:08.881Z,32.80
2022-08-23T21:34:11.998Z,33.30
2022-08-23T21:37:13.829Z,31.30
2022-08-23T21:40:15.615Z,32.10
2022-08-23T21:43:18.230Z,31.60
2022-08-23T21:46:20.724Z,31.10
2022-08-23T21:49:23.293Z,31.90
2022-08-23T21:52:25.210Z,32.00
2022-08-23T21:55:35.248Z,34.00
2022-08-23T21:58:39.824Z,35.40
2022-08-23T22:01:42.884Z,37.10
2022-08-23T22:04:44.985Z,35.10
2022-08-23T22:07:47.263Z,36.00
2022-08-23T22:10:57.431Z,36.10
2022-08-23T22:14:00.377Z,35.30
2022-08-23T22:17:02.259Z,35.00
2022-08-23T22:20:06.729Z,35.10
2022-08-23T22:23:08.651Z,34.10
2022-08-23T22:26:12.295Z,34.80
2022-08-23T22:29:15.904Z,35.70
2022-08-23T22:32:17.643Z,33.90
2022-08-23T22:35:19.605Z,34.40
2022-08-23T22:38:21.359Z,33.60
2022-08-23T22:41:27.377Z,32.60
2022-08-23T22:44:29.229Z,33.40
2022-08-23T22:47:31.215Z,33.60
2022-08-23T22:50:32.918Z,34.30
2022-08-23T22:53:36.807Z,33.40
2022-08-23T22:56:41.908Z,34.60
2022-08-23T22:59:44.088Z,35.10
2022-08-23T23:02:46.019Z,35.70
2022-08-23T23:05:47.804Z,37.60
2022-08-23T23:08:50.205Z,37.80
2022-08-23T23:11:52.182Z,37.60
2022-08-23T23:14:53.970Z,37.80
2022-08-23T23:17:55.909Z,37.40
2022-08-23T23:21:00.318Z,35.40
2022-08-23T23:24:02.724Z,35.40
2022-08-23T23:27:05.361Z,34.30
2022-08-23T23:30:08.981Z,33.80
2022-08-23T23:33:11.549Z,34.40
2022-08-23T23:36:16.554Z,34.70
2022-08-23T23:39:19.457Z,33.60
2022-08-23T23:42:21.658Z,36.00
2022-08-23T23:45:23.514Z,35.40
2022-08-23T23:48:25.366Z,35.40
2022-08-23T23:51:29.353Z,35.10
2022-08-23T23:54:31.854Z,33.20
2022-08-23T23:57:33.725Z,33.90
